sensor_id;sensor_type;location;lat;lon;timestamp;pressure;altitude;pressure_sealevel;temperature;humidity
13420;BME280;6781;58.440;15.470;2023-06-19T00:00:31;103192.44;;;16.19;100.00
13420;BME280;6781;58.440;15.470;2023-06-19T00:02:58;102991.34;;;15.26;100.00
13420;BME280;6781;58.440;15.470;2023-06-19T00:05:25;103085.63;;;16.24;100.00
13420;BME280;6781;58.440;15.470;2023-06-19T00:07:52;103030.44;;;16.27;100.00
13420;BME280;6781;58.440;15.470;2023-06-19T00:10:19;102896.66;;;15.77;100.00
13420;BME280;6781;58.440;15.470;2023-06-19T00:12:46;102928.69;;;16.21;100.00
13420;BME280;6781;58.440;15.470;2023-06-19T00:15:15;102813.28;;;15.58;100.00
13420;BME280;6781;58.440;15.470;2023-06-19T00:17:41;102911.72;;;16.27;100.00
13420;BME280;6781;58.440;15.470;2023-06-19T00:20:10;102888.25;;;16.25;100.00
13420;BME280;6781;58.440;15.470;2023-06-19T00:22:39;102708.88;;;15.14;100.00
13420;BME280;6781;58.440;15.470;2023-06-19T00:25:06;102800.84;;;16.01;100.00
13420;BME280;6781;58.440;15.470;2023-06-19T00:27:33;102761.25;;;15.93;100.00
13420;BME280;6781;58.440;15.470;2023-06-19T00:30:00;102757.09;;;16.28;100.00
13420;BME280;6781;58.440;15.470;2023-06-19T00:32:30;102746.81;;;16.25;100.00
13420;BME280;6781;58.440;15.470;2023-06-19T00:34:57;102748.72;;;16.23;100.00
13420;BME280;6781;58.440;15.470;2023-06-19T00:37:26;102717.28;;;16.23;100.00
13420;BME280;6781;58.440;15.470;2023-06-19T00:39:57;102718.34;;;16.21;100.00
13420;BME280;6781;58.440;15.470;2023-06-19T00:42:24;102624.28;;;15.54;100.00
13420;BME280;6781;58.440;15.470;2023-06-19T00:44:51;102742.63;;;16.10;100.00
13420;BME280;6781;58.440;15.470;2023-06-19T00:47:18;102797.91;;;16.06;100.00
13420;BME280;6781;58.440;15.470;2023-06-19T00:49:46;102816.97;;;16.08;100.00
13420;BME280;6781;58.440;15.470;2023-06-19T00:52:13;102766.09;;;15.59;100.00
13420;BME280;6781;58.440;15.470;2023-06-19T00:54:40;102852.69;;;16.09;100.00
13420;BME280;6781;58.440;15.470;2023-06-19T00:57:07;102787.66;;;16.15;100.00
13420;BME280;6781;58.440;15.470;2023-06-19T00:59:34;102729.66;;;16.21;100.00
13420;BME280;6781;58.440;15.470;2023-06-19T01:02:02;102717.06;;;16.26;100.00
13420;BME280;6781;58.440;15.470;2023-06-19T01:04:30;102723.25;;;16.25;100.00
13420;BME280;6781;58.440;15.470;2023-06-19T01:07:04;102752.88;;;16.13;100.00
13420;BME280;6781;58.440;15.470;2023-06-19T01:09:40;102689.84;;;15.39;100.00
13420;BME280;6781;58.440;15.470;2023-06-19T01:12:15;102818.03;;;16.05;100.00
13420;BME280;6781;58.440;15.470;2023-06-19T01:14:49;102808.50;;;16.04;100.00
13420;BME280;6781;58.440;15.470;2023-06-19T01:17:17;102795.41;;;16.04;100.00
13420;BME280;6781;58.440;15.470;2023-06-19T01:19:44;102638.38;;;15.00;100.00
13420;BME280;6781;58.440;15.470;2023-06-19T01:22:22;102827.81;;;15.89;100.00
13420;BME280;6781;58.440;15.470;2023-06-19T01:24:49;102841.94;;;15.86;100.00
13420;BME280;6781;58.440;15.470;2023-06-19T01:27:16;102866.53;;;15.84;100.00
13420;BME280;6781;58.440;15.470;2023-06-19T01:29:43;102879.63;;;15.84;100.00
13420;BME280;6781;58.440;15.470;2023-06-19T01:32:15;102844.78;;;15.42;100.00
13420;BME280;6781;58.440;15.470;2023-06-19T01:34:44;102930.31;;;15.69;100.00
13420;BME280;6781;58.440;15.470;2023-06-19T01:37:14;102945.28;;;15.67;100.00
13420;BME280;6781;58.440;15.470;2023-06-19T01:39:43;102982.09;;;15.63;100.00
13420;BME280;6781;58.440;15.470;2023-06-19T01:42:12;103014.34;;;15.50;100.00
13420;BME280;6781;58.440;15.470;2023-06-19T01:44:40;102885.09;;;14.53;100.00
13420;BME280;6781;58.440;15.470;2023-06-19T01:47:10;103068.44;;;15.49;100.00
13420;BME280;6781;58.440;15.470;2023-06-19T01:49:38;103010.94;;;15.19;100.00
13420;BME280;6781;58.440;15.470;2023-06-19T01:52:05;102903.25;;;14.84;100.00
13420;BME280;6781;58.440;15.470;2023-06-19T01:54:34;102982.28;;;15.60;100.00
13420;BME280;6781;58.440;15.470;2023-06-19T01:57:01;102918.56;;;15.61;100.00
13420;BME280;6781;58.440;15.470;2023-06-19T01:59:28;102854.94;;;15.61;100.00
13420;BME280;6781;58.440;15.470;2023-06-19T02:01:54;102803.78;;;15.70;100.00
13420;BME280;6781;58.440;15.470;2023-06-19T02:07:07;102718.25;;;15.04;100.00
13420;BME280;6781;58.440;15.470;2023-06-19T02:09:37;102746.63;;;15.10;100.00
13420;BME280;6781;58.440;15.470;2023-06-19T02:12:05;102732.66;;;14.96;100.00
13420;BME280;6781;58.440;15.470;2023-06-19T02:14:32;102751.75;;;15.11;100.00
13420;BME280;6781;58.440;15.470;2023-06-19T02:16:59;102695.72;;;15.15;100.00
13420;BME280;6781;58.440;15.470;2023-06-19T02:19:26;102590.53;;;14.58;100.00
13420;BME280;6781;58.440;15.470;2023-06-19T02:21:53;102772.59;;;15.67;100.00
13420;BME280;6781;58.440;15.470;2023-06-19T02:24:20;102815.13;;;15.56;100.00
13420;BME280;6781;58.440;15.470;2023-06-19T02:26:49;102855.81;;;15.47;100.00
13420;BME280;6781;58.440;15.470;2023-06-19T02:29:16;102854.16;;;15.18;100.00
13420;BME280;6781;58.440;15.470;2023-06-19T02:31:44;102913.44;;;15.46;100.00
13420;BME280;6781;58.440;15.470;2023-06-19T02:34:11;102910.00;;;15.45;100.00
13420;BME280;6781;58.440;15.470;2023-06-19T02:36:38;102820.94;;;15.06;100.00
13420;BME280;6781;58.440;15.470;2023-06-19T02:39:05;102876.16;;;15.56;100.00
13420;BME280;6781;58.440;15.470;2023-06-19T02:41:32;102863.06;;;15.56;100.00
13420;BME280;6781;58.440;15.470;2023-06-19T02:44:00;102818.56;;;15.29;100.00
13420;BME280;6781;58.440;15.470;2023-06-19T02:46:27;102706.47;;;14.70;100.00
13420;BME280;6781;58.440;15.470;2023-06-19T02:48:54;102676.63;;;14.59;100.00
13420;BME280;6781;58.440;15.470;2023-06-19T02:51:21;102882.88;;;15.60;100.00
13420;BME280;6781;58.440;15.470;2023-06-19T02:53:48;102846.13;;;15.21;100.00
13420;BME280;6781;58.440;15.470;2023-06-19T02:56:15;102903.09;;;15.44;100.00
13420;BME280;6781;58.440;15.470;2023-06-19T02:58:42;102927.91;;;15.66;100.00
13420;BME280;6781;58.440;15.470;2023-06-19T03:01:10;102904.91;;;15.71;100.00
13420;BME280;6781;58.440;15.470;2023-06-19T03:03:37;102777.31;;;15.20;100.00
13420;BME280;6781;58.440;15.470;2023-06-19T03:06:04;102863.72;;;15.87;100.00
13420;BME280;6781;58.440;15.470;2023-06-19T03:08:32;102888.63;;;15.80;100.00
13420;BME280;6781;58.440;15.470;2023-06-19T03:10:59;102844.22;;;15.51;100.00
13420;BME280;6781;58.440;15.470;2023-06-19T03:13:26;102841.25;;;15.43;100.00
13420;BME280;6781;58.440;15.470;2023-06-19T03:15:53;102909.13;;;16.00;100.00
13420;BME280;6781;58.440;15.470;2023-06-19T03:18:21;102875.91;;;15.74;100.00
13420;BME280;6781;58.440;15.470;2023-06-19T03:20:48;102924.25;;;16.09;100.00
13420;BME280;6781;58.440;15.470;2023-06-19T03:23:15;102862.09;;;15.72;100.00
13420;BME280;6781;58.440;15.470;2023-06-19T03:25:42;102914.19;;;16.16;100.00
13420;BME280;6781;58.440;15.470;2023-06-19T03:28:09;102757.81;;;15.66;100.00
13420;BME280;6781;58.440;15.470;2023-06-19T03:30:36;102769.63;;;15.98;100.00
13420;BME280;6781;58.440;15.470;2023-06-19T03:33:03;102749.47;;;15.73;100.00
13420;BME280;6781;58.440;15.470;2023-06-19T03:35:31;102846.63;;;16.08;100.00
13420;BME280;6781;58.440;15.470;2023-06-19T03:37:58;102760.16;;;15.43;100.00
13420;BME280;6781;58.440;15.470;2023-06-19T03:40:25;102808.19;;;15.42;100.00
13420;BME280;6781;58.440;15.470;2023-06-19T03:42:52;102846.53;;;15.56;100.00
13420;BME280;6781;58.440;15.470;2023-06-19T03:45:19;102781.00;;;15.04;100.00
13420;BME280;6781;58.440;15.470;2023-06-19T03:47:46;102959.63;;;15.88;100.00
13420;BME280;6781;58.440;15.470;2023-06-19T03:50:13;102981.09;;;16.07;100.00
13420;BME280;6781;58.440;15.470;2023-06-19T03:52:41;102964.56;;;16.07;100.00
13420;BME280;6781;58.440;15.470;2023-06-19T03:55:08;102808.06;;;14.88;100.00
13420;BME280;6781;58.440;15.470;2023-06-19T03:57:35;102931.34;;;15.66;100.00
13420;BME280;6781;58.440;15.470;2023-06-19T04:00:03;102994.84;;;16.11;100.00
13420;BME280;6781;58.440;15.470;2023-06-19T04:02:33;102994.97;;;15.95;100.00
13420;BME280;6781;58.440;15.470;2023-06-19T04:05:00;103008.22;;;16.06;100.00
13420;BME280;6781;58.440;15.470;2023-06-19T04:07:27;102902.34;;;15.42;100.00
13420;BME280;6781;58.440;15.470;2023-06-19T04:09:55;103037.66;;;16.10;100.00
13420;BME280;6781;58.440;15.470;2023-06-19T04:12:24;102883.75;;;15.47;100.00
13420;BME280;6781;58.440;15.470;2023-06-19T04:14:51;102987.38;;;16.32;100.00
13420;BME280;6781;58.440;15.470;2023-06-19T04:17:18;102982.41;;;16.41;100.00
13420;BME280;6781;58.440;15.470;2023-06-19T04:19:45;102942.16;;;16.15;100.00
13420;BME280;6781;58.440;15.470;2023-06-19T04:22:12;102974.44;;;16.43;100.00
13420;BME280;6781;58.440;15.470;2023-06-19T04:24:39;102942.72;;;16.60;100.00
13420;BME280;6781;58.440;15.470;2023-06-19T04:27:07;102877.78;;;16.25;100.00
13420;BME280;6781;58.440;15.470;2023-06-19T04:29:34;102896.25;;;16.37;100.00
13420;BME280;6781;58.440;15.470;2023-06-19T04:32:01;102816.75;;;15.98;100.00
13420;BME280;6781;58.440;15.470;2023-06-19T04:34:37;102874.78;;;16.57;100.00
13420;BME280;6781;58.440;15.470;2023-06-19T04:37:04;102820.41;;;16.60;100.00
13420;BME280;6781;58.440;15.470;2023-06-19T04:39:31;102803.44;;;16.66;100.00
13420;BME280;6781;58.440;15.470;2023-06-19T04:41:59;102759.38;;;16.58;100.00
13420;BME280;6781;58.440;15.470;2023-06-19T04:44:28;102752.38;;;16.59;100.00
13420;BME280;6781;58.440;15.470;2023-06-19T04:46:59;102623.84;;;16.24;100.00
13420;BME280;6781;58.440;15.470;2023-06-19T04:49:27;102717.56;;;16.70;100.00
13420;BME280;6781;58.440;15.470;2023-06-19T04:51:55;102650.53;;;16.42;100.00
13420;BME280;6781;58.440;15.470;2023-06-19T04:54:22;102645.59;;;16.50;100.00
13420;BME280;6781;58.440;15.470;2023-06-19T04:56:49;102718.41;;;17.07;100.00
13420;BME280;6781;58.440;15.470;2023-06-19T04:59:16;102578.59;;;16.22;100.00
13420;BME280;6781;58.440;15.470;2023-06-19T05:01:45;102715.44;;;17.35;100.00
13420;BME280;6781;58.440;15.470;2023-06-19T05:04:12;102609.56;;;17.01;100.00
13420;BME280;6781;58.440;15.470;2023-06-19T05:06:39;102552.88;;;16.40;100.00
13420;BME280;6781;58.440;15.470;2023-06-19T05:09:06;102640.19;;;17.01;100.00
13420;BME280;6781;58.440;15.470;2023-06-19T05:11:33;102661.03;;;17.26;100.00
13420;BME280;6781;58.440;15.470;2023-06-19T05:14:00;102550.06;;;16.30;100.00
13420;BME280;6781;58.440;15.470;2023-06-19T05:16:27;102520.38;;;16.18;100.00
13420;BME280;6781;58.440;15.470;2023-06-19T05:18:56;102639.56;;;16.97;100.00
13420;BME280;6781;58.440;15.470;2023-06-19T05:21:23;102653.47;;;17.10;100.00
13420;BME280;6781;58.440;15.470;2023-06-19T05:23:50;102650.09;;;17.32;100.00
13420;BME280;6781;58.440;15.470;2023-06-19T05:26:18;102642.09;;;17.69;100.00
13420;BME280;6781;58.440;15.470;2023-06-19T05:28:45;102559.69;;;17.25;100.00
13420;BME280;6781;58.440;15.470;2023-06-19T05:31:12;102576.50;;;17.22;100.00
13420;BME280;6781;58.440;15.470;2023-06-19T05:33:40;102422.75;;;16.16;100.00
13420;BME280;6781;58.440;15.470;2023-06-19T05:36:08;102462.75;;;16.18;100.00
13420;BME280;6781;58.440;15.470;2023-06-19T05:38:35;102562.66;;;16.85;100.00
13420;BME280;6781;58.440;15.470;2023-06-19T05:41:03;102606.78;;;17.38;100.00
13420;BME280;6781;58.440;15.470;2023-06-19T05:43:30;102591.66;;;17.41;100.00
13420;BME280;6781;58.440;15.470;2023-06-19T05:45:57;102512.47;;;17.47;100.00
13420;BME280;6781;58.440;15.470;2023-06-19T05:48:24;102576.13;;;17.96;100.00
13420;BME280;6781;58.440;15.470;2023-06-19T05:50:51;102345.22;;;17.06;100.00
13420;BME280;6781;58.440;15.470;2023-06-19T05:53:20;102332.56;;;16.67;100.00
13420;BME280;6781;58.440;15.470;2023-06-19T05:55:47;102435.34;;;17.16;100.00
13420;BME280;6781;58.440;15.470;2023-06-19T05:58:14;102464.53;;;17.45;100.00
13420;BME280;6781;58.440;15.470;2023-06-19T06:00:45;102427.56;;;16.92;100.00
13420;BME280;6781;58.440;15.470;2023-06-19T06:03:12;102431.88;;;17.05;100.00
13420;BME280;6781;58.440;15.470;2023-06-19T06:05:39;102270.19;;;16.25;100.00
13420;BME280;6781;58.440;15.470;2023-06-19T06:08:06;102457.63;;;17.11;100.00
13420;BME280;6781;58.440;15.470;2023-06-19T06:10:35;102283.78;;;16.31;100.00
13420;BME280;6781;58.440;15.470;2023-06-19T06:13:02;102393.47;;;17.04;100.00
13420;BME280;6781;58.440;15.470;2023-06-19T06:15:29;102269.75;;;16.43;100.00
13420;BME280;6781;58.440;15.470;2023-06-19T06:17:56;102327.09;;;16.92;100.00
13420;BME280;6781;58.440;15.470;2023-06-19T06:20:23;102372.38;;;16.94;100.00
13420;BME280;6781;58.440;15.470;2023-06-19T06:22:50;102391.59;;;17.06;100.00
13420;BME280;6781;58.440;15.470;2023-06-19T06:25:17;102322.47;;;16.84;100.00
13420;BME280;6781;58.440;15.470;2023-06-19T06:27:45;102453.56;;;17.40;100.00
13420;BME280;6781;58.440;15.470;2023-06-19T06:30:13;102397.91;;;17.26;100.00
13420;BME280;6781;58.440;15.470;2023-06-19T06:32:40;102399.28;;;17.52;100.00
13420;BME280;6781;58.440;15.470;2023-06-19T06:35:07;102427.59;;;18.03;100.00
13420;BME280;6781;58.440;15.470;2023-06-19T06:37:34;102418.06;;;18.34;100.00
13420;BME280;6781;58.440;15.470;2023-06-19T06:40:01;102239.75;;;17.35;100.00
13420;BME280;6781;58.440;15.470;2023-06-19T06:42:28;102253.00;;;17.65;100.00
13420;BME280;6781;58.440;15.470;2023-06-19T06:44:57;102304.69;;;18.17;100.00
13420;BME280;6781;58.440;15.470;2023-06-19T06:47:24;102294.25;;;18.06;100.00
13420;BME280;6781;58.440;15.470;2023-06-19T06:49:51;102129.22;;;17.18;100.00
13420;BME280;6781;58.440;15.470;2023-06-19T06:52:17;102208.81;;;17.49;100.00
13420;BME280;6781;58.440;15.470;2023-06-19T06:54:44;102174.66;;;17.08;100.00
13420;BME280;6781;58.440;15.470;2023-06-19T06:57:11;102234.47;;;17.78;100.00
13420;BME280;6781;58.440;15.470;2023-06-19T06:59:38;102254.41;;;18.01;100.00
13420;BME280;6781;58.440;15.470;2023-06-19T07:02:07;102088.28;;;16.52;100.00
13420;BME280;6781;58.440;15.470;2023-06-19T07:04:34;102265.41;;;17.95;100.00
13420;BME280;6781;58.440;15.470;2023-06-19T07:07:01;102141.03;;;17.13;100.00
13420;BME280;6781;58.440;15.470;2023-06-19T07:09:29;102239.84;;;18.18;100.00
13420;BME280;6781;58.440;15.470;2023-06-19T07:11:56;102204.78;;;18.29;100.00
13420;BME280;6781;58.440;15.470;2023-06-19T07:14:23;102174.00;;;18.10;100.00
13420;BME280;6781;58.440;15.470;2023-06-19T07:16:50;102194.53;;;18.26;100.00
13420;BME280;6781;58.440;15.470;2023-06-19T07:19:19;102063.16;;;17.55;100.00
13420;BME280;6781;58.440;15.470;2023-06-19T07:21:46;102145.16;;;18.60;100.00
13420;BME280;6781;58.440;15.470;2023-06-19T07:24:13;101984.94;;;17.70;100.00
13420;BME280;6781;58.440;15.470;2023-06-19T07:26:40;102035.22;;;18.05;100.00
13420;BME280;6781;58.440;15.470;2023-06-19T07:29:07;101977.38;;;17.55;100.00
13420;BME280;6781;58.440;15.470;2023-06-19T07:31:33;102054.63;;;17.63;100.00
13420;BME280;6781;58.440;15.470;2023-06-19T07:34:00;102130.50;;;18.17;100.00
13420;BME280;6781;58.440;15.470;2023-06-19T07:36:29;102092.78;;;18.28;100.00
13420;BME280;6781;58.440;15.470;2023-06-19T07:38:56;101879.03;;;17.40;100.00
13420;BME280;6781;58.440;15.470;2023-06-19T07:41:23;102058.03;;;18.74;100.00
13420;BME280;6781;58.440;15.470;2023-06-19T07:43:50;101994.06;;;18.35;100.00
13420;BME280;6781;58.440;15.470;2023-06-19T07:46:17;101965.84;;;18.37;100.00
13420;BME280;6781;58.440;15.470;2023-06-19T07:48:44;101973.88;;;18.45;100.00
13420;BME280;6781;58.440;15.470;2023-06-19T07:51:11;101913.16;;;17.90;100.00
13420;BME280;6781;58.440;15.470;2023-06-19T07:53:39;101941.78;;;18.51;100.00
13420;BME280;6781;58.440;15.470;2023-06-19T07:56:06;101909.28;;;18.52;100.00
13420;BME280;6781;58.440;15.470;2023-06-19T07:58:34;101736.41;;;17.61;100.00
13420;BME280;6781;58.440;15.470;2023-06-19T08:01:00;101685.59;;;17.52;100.00
13420;BME280;6781;58.440;15.470;2023-06-19T08:03:27;101867.00;;;19.02;100.00
13420;BME280;6781;58.440;15.470;2023-06-19T08:05:56;101797.03;;;18.35;100.00
13420;BME280;6781;58.440;15.470;2023-06-19T08:08:23;101731.31;;;17.98;100.00
13420;BME280;6781;58.440;15.470;2023-06-19T08:10:51;101844.25;;;18.73;100.00
13420;BME280;6781;58.440;15.470;2023-06-19T08:13:18;101837.28;;;18.26;100.00
13420;BME280;6781;58.440;15.470;2023-06-19T08:15:45;101842.38;;;18.37;100.00
13420;BME280;6781;58.440;15.470;2023-06-19T08:18:12;101828.16;;;18.30;100.00
13420;BME280;6781;58.440;15.470;2023-06-19T08:20:39;101871.84;;;18.11;100.00
13420;BME280;6781;58.440;15.470;2023-06-19T08:23:06;101827.19;;;17.73;100.00
13420;BME280;6781;58.440;15.470;2023-06-19T08:25:33;101843.91;;;17.91;100.00
13420;BME280;6781;58.440;15.470;2023-06-19T08:28:02;101902.22;;;17.85;100.00
13420;BME280;6781;58.440;15.470;2023-06-19T08:30:30;101920.50;;;18.35;100.00
13420;BME280;6781;58.440;15.470;2023-06-19T08:32:57;101934.88;;;18.50;100.00
13420;BME280;6781;58.440;15.470;2023-06-19T08:35:24;101887.59;;;18.31;100.00
13420;BME280;6781;58.440;15.470;2023-06-19T08:37:50;101877.06;;;18.50;100.00
13420;BME280;6781;58.440;15.470;2023-06-19T08:40:19;101844.44;;;18.62;100.00
13420;BME280;6781;58.440;15.470;2023-06-19T08:42:47;101785.22;;;18.58;100.00
13420;BME280;6781;58.440;15.470;2023-06-19T08:45:16;101781.31;;;18.72;100.00
13420;BME280;6781;58.440;15.470;2023-06-19T08:47:46;101682.53;;;17.95;100.00
13420;BME280;6781;58.440;15.470;2023-06-19T08:50:13;101738.72;;;18.21;100.00
13420;BME280;6781;58.440;15.470;2023-06-19T08:52:40;101834.66;;;18.92;100.00
13420;BME280;6781;58.440;15.470;2023-06-19T08:55:07;101790.59;;;18.66;100.00
13420;BME280;6781;58.440;15.470;2023-06-19T08:57:37;101783.75;;;19.28;100.00
13420;BME280;6781;58.440;15.470;2023-06-19T09:00:05;101754.06;;;19.36;100.00
13420;BME280;6781;58.440;15.470;2023-06-19T09:02:40;101566.13;;;18.04;100.00
13420;BME280;6781;58.440;15.470;2023-06-19T09:05:12;101730.97;;;18.94;100.00
13420;BME280;6781;58.440;15.470;2023-06-19T09:07:39;101704.53;;;18.96;100.00
13420;BME280;6781;58.440;15.470;2023-06-19T09:10:17;101688.38;;;19.26;100.00
13420;BME280;6781;58.440;15.470;2023-06-19T09:12:56;101655.59;;;19.38;100.00
13420;BME280;6781;58.440;15.470;2023-06-19T09:15:26;101568.72;;;18.59;100.00
13420;BME280;6781;58.440;15.470;2023-06-19T09:18:01;101581.09;;;19.20;100.00
13420;BME280;6781;58.440;15.470;2023-06-19T09:20:29;101602.72;;;19.75;100.00
13420;BME280;6781;58.440;15.470;2023-06-19T09:22:56;101469.47;;;18.89;100.00
13420;BME280;6781;58.440;15.470;2023-06-19T09:25:24;101546.28;;;20.70;100.00
13420;BME280;6781;58.440;15.470;2023-06-19T09:27:52;101319.53;;;18.54;100.00
13420;BME280;6781;58.440;15.470;2023-06-19T09:30:19;101496.09;;;19.71;100.00
13420;BME280;6781;58.440;15.470;2023-06-19T09:32:46;101382.94;;;19.11;100.00
13420;BME280;6781;58.440;15.470;2023-06-19T09:35:15;101459.91;;;20.40;100.00
13420;BME280;6781;58.440;15.470;2023-06-19T09:37:43;101420.47;;;19.98;100.00
13420;BME280;6781;58.440;15.470;2023-06-19T09:40:12;101451.44;;;20.12;100.00
13420;BME280;6781;58.440;15.470;2023-06-19T09:42:40;101431.53;;;20.83;100.00
13420;BME280;6781;58.440;15.470;2023-06-19T09:45:09;101414.41;;;20.70;100.00
13420;BME280;6781;58.440;15.470;2023-06-19T09:47:39;101376.13;;;20.91;100.00
13420;BME280;6781;58.440;15.470;2023-06-19T09:50:07;101335.03;;;20.41;100.00
13420;BME280;6781;58.440;15.470;2023-06-19T09:52:35;101394.53;;;21.07;100.00
13420;BME280;6781;58.440;15.470;2023-06-19T09:55:03;101248.94;;;19.52;100.00
13420;BME280;6781;58.440;15.470;2023-06-19T09:57:31;101375.19;;;20.10;100.00
13420;BME280;6781;58.440;15.470;2023-06-19T09:59:59;101306.03;;;19.60;100.00
13420;BME280;6781;58.440;15.470;2023-06-19T10:02:34;101395.97;;;20.30;100.00
13420;BME280;6781;58.440;15.470;2023-06-19T10:05:02;101390.00;;;19.95;100.00
13420;BME280;6781;58.440;15.470;2023-06-19T10:07:35;101392.34;;;20.23;100.00
13420;BME280;6781;58.440;15.470;2023-06-19T10:10:03;101234.06;;;18.68;100.00
13420;BME280;6781;58.440;15.470;2023-06-19T10:12:39;101360.53;;;19.33;100.00
13420;BME280;6781;58.440;15.470;2023-06-19T10:15:12;101394.44;;;19.44;100.00
13420;BME280;6781;58.440;15.470;2023-06-19T10:17:44;101356.38;;;19.65;100.00
13420;BME280;6781;58.440;15.470;2023-06-19T10:20:28;101424.84;;;21.27;100.00
13420;BME280;6781;58.440;15.470;2023-06-19T10:23:03;101347.88;;;21.47;100.00
13420;BME280;6781;58.440;15.470;2023-06-19T10:25:33;101320.25;;;22.26;100.00
13420;BME280;6781;58.440;15.470;2023-06-19T10:28:01;101259.66;;;22.39;100.00
13420;BME280;6781;58.440;15.470;2023-06-19T10:30:31;101122.19;;;22.10;100.00
13420;BME280;6781;58.440;15.470;2023-06-19T10:33:00;101108.94;;;22.60;100.00
13420;BME280;6781;58.440;15.470;2023-06-19T10:35:36;101111.53;;;22.03;100.00
13420;BME280;6781;58.440;15.470;2023-06-19T10:38:06;101135.19;;;21.96;100.00
13420;BME280;6781;58.440;15.470;2023-06-19T10:40:36;101094.28;;;22.22;100.00
13420;BME280;6781;58.440;15.470;2023-06-19T10:43:03;101063.13;;;22.53;100.00
13420;BME280;6781;58.440;15.470;2023-06-19T10:45:30;101031.19;;;22.33;100.00
13420;BME280;6781;58.440;15.470;2023-06-19T10:48:00;101050.69;;;22.54;100.00
13420;BME280;6781;58.440;15.470;2023-06-19T10:50:27;101069.09;;;22.40;100.00
13420;BME280;6781;58.440;15.470;2023-06-19T10:52:55;101095.00;;;23.09;100.00
13420;BME280;6781;58.440;15.470;2023-06-19T10:55:23;101000.16;;;22.85;100.00
13420;BME280;6781;58.440;15.470;2023-06-19T10:57:50;101070.84;;;23.68;100.00
13420;BME280;6781;58.440;15.470;2023-06-19T11:00:25;101052.66;;;23.09;100.00
13420;BME280;6781;58.440;15.470;2023-06-19T11:02:52;100944.72;;;21.91;100.00
13420;BME280;6781;58.440;15.470;2023-06-19T11:05:20;100921.78;;;21.77;100.00
13420;BME280;6781;58.440;15.470;2023-06-19T11:07:52;101052.00;;;21.33;100.00
13420;BME280;6781;58.440;15.470;2023-06-19T11:10:20;101086.94;;;22.17;100.00
13420;BME280;6781;58.440;15.470;2023-06-19T11:12:49;101075.19;;;22.62;100.00
13420;BME280;6781;58.440;15.470;2023-06-19T11:15:16;101032.19;;;21.67;100.00
13420;BME280;6781;58.440;15.470;2023-06-19T11:17:43;101056.72;;;22.84;100.00
13420;BME280;6781;58.440;15.470;2023-06-19T11:20:11;100950.00;;;22.27;100.00
13420;BME280;6781;58.440;15.470;2023-06-19T11:22:39;101001.03;;;22.92;100.00
13420;BME280;6781;58.440;15.470;2023-06-19T11:25:08;100949.44;;;22.11;100.00
13420;BME280;6781;58.440;15.470;2023-06-19T11:27:37;101014.59;;;23.10;100.00
13420;BME280;6781;58.440;15.470;2023-06-19T11:30:07;100989.94;;;22.82;100.00
13420;BME280;6781;58.440;15.470;2023-06-19T11:32:36;101002.97;;;23.39;100.00
13420;BME280;6781;58.440;15.470;2023-06-19T11:35:08;100958.53;;;24.50;100.00
13420;BME280;6781;58.440;15.470;2023-06-19T11:37:37;100895.72;;;23.15;100.00
13420;BME280;6781;58.440;15.470;2023-06-19T11:40:04;100972.97;;;23.60;100.00
13420;BME280;6781;58.440;15.470;2023-06-19T11:42:45;100984.41;;;23.67;100.00
13420;BME280;6781;58.440;15.470;2023-06-19T11:45:15;100977.25;;;23.26;100.00
13420;BME280;6781;58.440;15.470;2023-06-19T11:47:43;100807.72;;;21.88;100.00
13420;BME280;6781;58.440;15.470;2023-06-19T11:50:11;100985.09;;;23.13;100.00
13420;BME280;6781;58.440;15.470;2023-06-19T11:52:38;100947.97;;;22.08;100.00
13420;BME280;6781;58.440;15.470;2023-06-19T11:55:06;100871.53;;;21.70;100.00
13420;BME280;6781;58.440;15.470;2023-06-19T11:57:33;100952.91;;;22.82;100.00
13420;BME280;6781;58.440;15.470;2023-06-19T12:00:00;100940.09;;;23.13;100.00
13420;BME280;6781;58.440;15.470;2023-06-19T12:02:30;100857.41;;;22.42;100.00
13420;BME280;6781;58.440;15.470;2023-06-19T12:04:57;100972.81;;;23.33;100.00
13420;BME280;6781;58.440;15.470;2023-06-19T12:07:25;100851.75;;;23.14;100.00
13420;BME280;6781;58.440;15.470;2023-06-19T12:09:52;100900.88;;;23.71;100.00
13420;BME280;6781;58.440;15.470;2023-06-19T12:12:19;100960.13;;;23.22;100.00
13420;BME280;6781;58.440;15.470;2023-06-19T12:14:46;100964.50;;;23.09;100.00
13420;BME280;6781;58.440;15.470;2023-06-19T12:17:12;100953.97;;;23.15;100.00
13420;BME280;6781;58.440;15.470;2023-06-19T12:19:41;100743.66;;;22.77;100.00
13420;BME280;6781;58.440;15.470;2023-06-19T12:22:08;100927.44;;;23.97;100.00
13420;BME280;6781;58.440;15.470;2023-06-19T12:24:35;100952.41;;;24.82;100.00
13420;BME280;6781;58.440;15.470;2023-06-19T12:27:02;100757.81;;;23.58;100.00
13420;BME280;6781;58.440;15.470;2023-06-19T12:29:29;100786.38;;;24.09;100.00
13420;BME280;6781;58.440;15.470;2023-06-19T12:32:00;100828.25;;;22.98;100.00
13420;BME280;6781;58.440;15.470;2023-06-19T12:34:27;100860.38;;;24.04;100.00
13420;BME280;6781;58.440;15.470;2023-06-19T12:36:56;100831.84;;;24.19;100.00
13420;BME280;6781;58.440;15.470;2023-06-19T12:39:23;100726.81;;;24.05;100.00
13420;BME280;6781;58.440;15.470;2023-06-19T12:41:51;100796.97;;;24.09;100.00
13420;BME280;6781;58.440;15.470;2023-06-19T12:44:18;100886.28;;;24.54;100.00
13420;BME280;6781;58.440;15.470;2023-06-19T12:46:45;100845.09;;;22.90;100.00